sensor_id;sensor_type;location;lat;lon;timestamp;P1;durP1;ratioP1;P2;durP2;ratioP2
739;SDS011;354;42.694;23.336;2023-07-31T00:00:21;8.00;;;7.50;;
739;SDS011;354;42.694;23.336;2023-07-31T00:02:46;8.75;;;8.07;;
739;SDS011;354;42.694;23.336;2023-07-31T00:05:11;8.38;;;7.88;;
739;SDS011;354;42.694;23.336;2023-07-31T00:07:37;8.20;;;7.70;;
739;SDS011;354;42.694;23.336;2023-07-31T00:10:02;8.48;;;7.88;;
739;SDS011;354;42.694;23.336;2023-07-31T00:12:27;8.70;;;8.20;;
739;SDS011;354;42.694;23.336;2023-07-31T00:14:52;8.07;;;7.57;;
739;SDS011;354;42.694;23.336;2023-07-31T00:17:18;8.35;;;7.80;;
739;SDS011;354;42.694;23.336;2023-07-31T00:19:43;8.43;;;7.93;;
739;SDS011;354;42.694;23.336;2023-07-31T00:22:11;8.05;;;7.55;;
739;SDS011;354;42.694;23.336;2023-07-31T00:24:36;8.35;;;7.75;;
739;SDS011;354;42.694;23.336;2023-07-31T00:27:01;8.35;;;7.75;;
739;SDS011;354;42.694;23.336;2023-07-31T00:29:26;9.00;;;8.35;;
739;SDS011;354;42.694;23.336;2023-07-31T00:31:52;8.27;;;7.78;;
739;SDS011;354;42.694;23.336;2023-07-31T00:34:17;8.82;;;8.32;;
739;SDS011;354;42.694;23.336;2023-07-31T00:36:42;9.05;;;8.35;;
739;SDS011;354;42.694;23.336;2023-07-31T00:39:07;9.05;;;8.45;;
739;SDS011;354;42.694;23.336;2023-07-31T00:41:32;9.93;;;9.13;;
739;SDS011;354;42.694;23.336;2023-07-31T00:43:58;9.25;;;8.57;;
739;SDS011;354;42.694;23.336;2023-07-31T00:46:23;10.40;;;9.55;;
739;SDS011;354;42.694;23.336;2023-07-31T00:48:48;9.52;;;8.93;;
739;SDS011;354;42.694;23.336;2023-07-31T00:51:14;10.25;;;9.55;;
739;SDS011;354;42.694;23.336;2023-07-31T00:53:39;10.30;;;9.70;;
739;SDS011;354;42.694;23.336;2023-07-31T00:56:05;10.40;;;9.80;;
739;SDS011;354;42.694;23.336;2023-07-31T00:58:30;11.88;;;11.00;;
739;SDS011;354;42.694;23.336;2023-07-31T01:00:56;11.05;;;10.35;;
739;SDS011;354;42.694;23.336;2023-07-31T01:03:21;12.35;;;11.55;;
739;SDS011;354;42.694;23.336;2023-07-31T01:10:56;15.23;;;13.82;;
739;SDS011;354;42.694;23.336;2023-07-31T01:13:26;15.90;;;14.57;;
739;SDS011;354;42.694;23.336;2023-07-31T01:15:51;17.00;;;15.75;;
739;SDS011;354;42.694;23.336;2023-07-31T01:18:16;16.50;;;15.25;;
739;SDS011;354;42.694;23.336;2023-07-31T01:20:42;16.25;;;15.05;;
739;SDS011;354;42.694;23.336;2023-07-31T01:28:05;18.48;;;16.98;;
739;SDS011;354;42.694;23.336;2023-07-31T01:30:33;19.88;;;18.27;;
739;SDS011;354;42.694;23.336;2023-07-31T01:33:00;20.52;;;18.85;;
739;SDS011;354;42.694;23.336;2023-07-31T01:35:28;20.52;;;18.75;;
739;SDS011;354;42.694;23.336;2023-07-31T01:37:54;22.13;;;20.23;;
739;SDS011;354;42.694;23.336;2023-07-31T01:40:19;22.60;;;20.80;;
739;SDS011;354;42.694;23.336;2023-07-31T01:42:44;22.20;;;20.40;;
739;SDS011;354;42.694;23.336;2023-07-31T01:45:09;21.95;;;20.08;;
739;SDS011;354;42.694;23.336;2023-07-31T01:47:35;24.80;;;22.52;;
739;SDS011;354;42.694;23.336;2023-07-31T01:50:00;29.70;;;23.75;;
739;SDS011;354;42.694;23.336;2023-07-31T01:52:25;25.80;;;23.60;;
739;SDS011;354;42.694;23.336;2023-07-31T01:54:50;25.77;;;23.35;;
739;SDS011;354;42.694;23.336;2023-07-31T01:57:16;26.20;;;23.80;;
739;SDS011;354;42.694;23.336;2023-07-31T01:59:41;26.50;;;24.20;;
739;SDS011;354;42.694;23.336;2023-07-31T02:02:06;29.35;;;26.73;;
739;SDS011;354;42.694;23.336;2023-07-31T02:04:31;27.75;;;25.15;;
739;SDS011;354;42.694;23.336;2023-07-31T02:06:56;27.20;;;24.75;;
739;SDS011;354;42.694;23.336;2023-07-31T02:09:22;27.73;;;25.25;;
739;SDS011;354;42.694;23.336;2023-07-31T02:11:47;27.92;;;25.52;;
739;SDS011;354;42.694;23.336;2023-07-31T02:14:12;28.40;;;25.63;;
739;SDS011;354;42.694;23.336;2023-07-31T02:16:37;29.98;;;27.27;;
739;SDS011;354;42.694;23.336;2023-07-31T02:19:02;29.23;;;26.63;;
739;SDS011;354;42.694;23.336;2023-07-31T02:21:28;30.33;;;27.52;;
739;SDS011;354;42.694;23.336;2023-07-31T02:23:53;29.75;;;27.02;;
739;SDS011;354;42.694;23.336;2023-07-31T02:26:18;29.38;;;26.65;;
739;SDS011;354;42.694;23.336;2023-07-31T02:28:43;28.38;;;25.73;;
739;SDS011;354;42.694;23.336;2023-07-31T02:31:09;29.75;;;26.98;;
739;SDS011;354;42.694;23.336;2023-07-31T02:33:34;29.40;;;26.60;;
739;SDS011;354;42.694;23.336;2023-07-31T02:35:59;29.45;;;26.55;;
739;SDS011;354;42.694;23.336;2023-07-31T02:38:24;30.77;;;27.88;;
739;SDS011;354;42.694;23.336;2023-07-31T02:40:50;30.65;;;27.90;;
739;SDS011;354;42.694;23.336;2023-07-31T02:43:15;30.13;;;27.23;;
739;SDS011;354;42.694;23.336;2023-07-31T02:45:40;30.35;;;27.67;;
739;SDS011;354;42.694;23.336;2023-07-31T02:48:05;30.95;;;27.90;;
739;SDS011;354;42.694;23.336;2023-07-31T02:50:30;29.63;;;26.92;;
739;SDS011;354;42.694;23.336;2023-07-31T02:52:57;29.30;;;26.60;;
739;SDS011;354;42.694;23.336;2023-07-31T02:55:22;30.35;;;27.27;;
739;SDS011;354;42.694;23.336;2023-07-31T02:57:47;29.73;;;27.05;;
739;SDS011;354;42.694;23.336;2023-07-31T03:00:12;28.50;;;25.95;;
739;SDS011;354;42.694;23.336;2023-07-31T03:02:38;28.50;;;25.80;;
739;SDS011;354;42.694;23.336;2023-07-31T03:05:03;30.42;;;27.73;;
739;SDS011;354;42.694;23.336;2023-07-31T03:07:28;29.40;;;26.77;;
739;SDS011;354;42.694;23.336;2023-07-31T03:09:55;28.95;;;26.38;;
739;SDS011;354;42.694;23.336;2023-07-31T03:12:20;28.48;;;25.95;;
739;SDS011;354;42.694;23.336;2023-07-31T03:14:46;28.65;;;25.92;;
739;SDS011;354;42.694;23.336;2023-07-31T03:17:11;30.33;;;27.73;;
739;SDS011;354;42.694;23.336;2023-07-31T03:19:36;31.00;;;28.10;;
739;SDS011;354;42.694;23.336;2023-07-31T03:22:02;30.15;;;27.38;;
739;SDS011;354;42.694;23.336;2023-07-31T03:24:28;29.85;;;27.13;;
739;SDS011;354;42.694;23.336;2023-07-31T03:26:53;29.70;;;27.02;;
739;SDS011;354;42.694;23.336;2023-07-31T03:29:18;29.20;;;26.65;;
739;SDS011;354;42.694;23.336;2023-07-31T03:31:43;30.52;;;27.83;;
739;SDS011;354;42.694;23.336;2023-07-31T03:34:09;30.23;;;27.42;;
739;SDS011;354;42.694;23.336;2023-07-31T03:36:34;28.00;;;25.50;;
739;SDS011;354;42.694;23.336;2023-07-31T03:38:59;31.45;;;28.50;;
739;SDS011;354;42.694;23.336;2023-07-31T03:41:24;31.55;;;28.55;;
739;SDS011;354;42.694;23.336;2023-07-31T03:43:50;29.55;;;26.85;;
739;SDS011;354;42.694;23.336;2023-07-31T03:46:17;29.70;;;26.92;;
739;SDS011;354;42.694;23.336;2023-07-31T03:48:42;30.23;;;27.42;;
739;SDS011;354;42.694;23.336;2023-07-31T03:51:07;28.52;;;25.90;;
739;SDS011;354;42.694;23.336;2023-07-31T03:53:32;30.60;;;27.65;;
739;SDS011;354;42.694;23.336;2023-07-31T03:55:57;29.27;;;26.48;;
739;SDS011;354;42.694;23.336;2023-07-31T03:58:23;30.77;;;28.00;;
739;SDS011;354;42.694;23.336;2023-07-31T04:00:48;28.75;;;26.15;;
739;SDS011;354;42.694;23.336;2023-07-31T04:03:13;29.65;;;26.92;;
739;SDS011;354;42.694;23.336;2023-07-31T04:05:38;30.00;;;26.83;;
739;SDS011;354;42.694;23.336;2023-07-31T04:08:04;31.25;;;28.15;;
739;SDS011;354;42.694;23.336;2023-07-31T04:10:30;31.50;;;28.45;;
739;SDS011;354;42.694;23.336;2023-07-31T04:12:58;29.98;;;27.10;;
739;SDS011;354;42.694;23.336;2023-07-31T04:15:23;30.92;;;27.83;;
739;SDS011;354;42.694;23.336;2023-07-31T04:17:48;31.35;;;28.25;;
739;SDS011;354;42.694;23.336;2023-07-31T04:20:13;30.95;;;27.67;;
739;SDS011;354;42.694;23.336;2023-07-31T04:22:38;29.85;;;26.85;;
739;SDS011;354;42.694;23.336;2023-07-31T04:25:04;30.55;;;27.73;;
739;SDS011;354;42.694;23.336;2023-07-31T04:27:29;30.33;;;27.45;;
739;SDS011;354;42.694;23.336;2023-07-31T04:29:54;29.70;;;26.80;;
739;SDS011;354;42.694;23.336;2023-07-31T04:32:19;33.83;;;30.38;;
739;SDS011;354;42.694;23.336;2023-07-31T04:34:45;30.23;;;27.45;;
739;SDS011;354;42.694;23.336;2023-07-31T04:37:11;28.92;;;26.13;;
739;SDS011;354;42.694;23.336;2023-07-31T04:39:36;28.48;;;25.67;;
739;SDS011;354;42.694;23.336;2023-07-31T04:42:01;30.00;;;26.83;;
739;SDS011;354;42.694;23.336;2023-07-31T04:44:26;28.15;;;25.45;;
739;SDS011;354;42.694;23.336;2023-07-31T04:46:52;29.08;;;26.15;;
739;SDS011;354;42.694;23.336;2023-07-31T04:49:17;29.45;;;26.75;;
739;SDS011;354;42.694;23.336;2023-07-31T04:51:42;29.23;;;26.15;;
739;SDS011;354;42.694;23.336;2023-07-31T04:54:07;27.70;;;24.92;;
739;SDS011;354;42.694;23.336;2023-07-31T04:56:33;27.95;;;25.02;;
739;SDS011;354;42.694;23.336;2023-07-31T04:58:58;28.15;;;25.35;;
739;SDS011;354;42.694;23.336;2023-07-31T05:01:23;27.42;;;24.83;;
739;SDS011;354;42.694;23.336;2023-07-31T05:03:48;27.38;;;24.70;;
739;SDS011;354;42.694;23.336;2023-07-31T05:06:13;23.55;;;21.55;;
739;SDS011;354;42.694;23.336;2023-07-31T05:08:40;26.45;;;23.95;;
739;SDS011;354;42.694;23.336;2023-07-31T05:11:05;23.67;;;21.52;;
739;SDS011;354;42.694;23.336;2023-07-31T05:13:30;26.17;;;23.55;;
739;SDS011;354;42.694;23.336;2023-07-31T05:15:55;23.75;;;21.65;;
739;SDS011;354;42.694;23.336;2023-07-31T05:18:21;25.33;;;23.00;;
739;SDS011;354;42.694;23.336;2023-07-31T05:20:46;22.83;;;20.85;;
739;SDS011;354;42.694;23.336;2023-07-31T05:23:11;21.25;;;19.45;;
739;SDS011;354;42.694;23.336;2023-07-31T05:25:36;21.27;;;19.35;;
739;SDS011;354;42.694;23.336;2023-07-31T05:28:01;18.35;;;16.75;;
739;SDS011;354;42.694;23.336;2023-07-31T05:30:27;20.50;;;18.70;;
739;SDS011;354;42.694;23.336;2023-07-31T05:32:54;20.63;;;18.80;;
739;SDS011;354;42.694;23.336;2023-07-31T05:35:19;18.98;;;17.38;;
739;SDS011;354;42.694;23.336;2023-07-31T05:37:44;18.05;;;16.55;;
739;SDS011;354;42.694;23.336;2023-07-31T05:40:10;18.88;;;17.15;;
739;SDS011;354;42.694;23.336;2023-07-31T05:42:35;18.50;;;17.02;;
739;SDS011;354;42.694;23.336;2023-07-31T05:45:03;17.77;;;16.27;;
739;SDS011;354;42.694;23.336;2023-07-31T05:47:28;16.40;;;14.88;;
739;SDS011;354;42.694;23.336;2023-07-31T05:49:53;16.58;;;15.23;;
739;SDS011;354;42.694;23.336;2023-07-31T05:52:18;16.85;;;15.38;;
739;SDS011;354;42.694;23.336;2023-07-31T05:54:46;14.98;;;13.70;;
739;SDS011;354;42.694;23.336;2023-07-31T05:57:12;15.52;;;14.13;;
739;SDS011;354;42.694;23.336;2023-07-31T05:59:37;17.13;;;15.55;;
739;SDS011;354;42.694;23.336;2023-07-31T06:02:02;16.48;;;14.93;;
739;SDS011;354;42.694;23.336;2023-07-31T06:04:27;14.55;;;13.45;;
739;SDS011;354;42.694;23.336;2023-07-31T06:06:53;13.88;;;12.77;;
739;SDS011;354;42.694;23.336;2023-07-31T06:09:18;26.10;;;14.25;;
739;SDS011;354;42.694;23.336;2023-07-31T06:11:45;13.27;;;12.05;;
739;SDS011;354;42.694;23.336;2023-07-31T06:14:10;11.80;;;10.93;;
739;SDS011;354;42.694;23.336;2023-07-31T06:16:35;11.05;;;10.25;;
739;SDS011;354;42.694;23.336;2023-07-31T06:19:01;11.48;;;10.48;;
739;SDS011;354;42.694;23.336;2023-07-31T06:21:26;10.77;;;9.88;;
739;SDS011;354;42.694;23.336;2023-07-31T06:23:51;11.07;;;10.38;;
739;SDS011;354;42.694;23.336;2023-07-31T06:26:16;9.73;;;9.02;;
739;SDS011;354;42.694;23.336;2023-07-31T06:28:42;9.80;;;9.10;;
739;SDS011;354;42.694;23.336;2023-07-31T06:31:07;10.05;;;9.35;;
739;SDS011;354;42.694;23.336;2023-07-31T06:33:32;9.80;;;9.10;;
739;SDS011;354;42.694;23.336;2023-07-31T06:35:57;9.75;;;8.98;;
739;SDS011;354;42.694;23.336;2023-07-31T06:38:24;9.95;;;9.18;;
739;SDS011;354;42.694;23.336;2023-07-31T06:40:50;9.68;;;8.88;;
739;SDS011;354;42.694;23.336;2023-07-31T06:43:15;9.52;;;8.63;;
739;SDS011;354;42.694;23.336;2023-07-31T06:45:41;9.73;;;8.85;;
739;SDS011;354;42.694;23.336;2023-07-31T06:48:06;11.68;;;10.77;;
739;SDS011;354;42.694;23.336;2023-07-31T06:50:31;11.30;;;9.20;;
739;SDS011;354;42.694;23.336;2023-07-31T06:52:57;9.38;;;8.70;;
739;SDS011;354;42.694;23.336;2023-07-31T06:55:23;8.82;;;8.25;;
739;SDS011;354;42.694;23.336;2023-07-31T06:57:49;9.07;;;8.38;;
739;SDS011;354;42.694;23.336;2023-07-31T07:00:15;9.10;;;8.40;;
739;SDS011;354;42.694;23.336;2023-07-31T07:02:40;9.93;;;9.15;;
739;SDS011;354;42.694;23.336;2023-07-31T07:05:06;8.40;;;7.80;;
739;SDS011;354;42.694;23.336;2023-07-31T07:07:32;8.65;;;8.05;;
739;SDS011;354;42.694;23.336;2023-07-31T07:10:00;8.27;;;7.70;;
739;SDS011;354;42.694;23.336;2023-07-31T07:12:26;9.38;;;8.73;;
739;SDS011;354;42.694;23.336;2023-07-31T07:14:51;8.88;;;8.27;;
739;SDS011;354;42.694;23.336;2023-07-31T07:17:18;10.35;;;9.48;;
739;SDS011;354;42.694;23.336;2023-07-31T07:19:43;8.32;;;7.72;;
739;SDS011;354;42.694;23.336;2023-07-31T07:22:09;9.43;;;8.82;;
739;SDS011;354;42.694;23.336;2023-07-31T07:24:35;8.98;;;8.20;;
739;SDS011;354;42.694;23.336;2023-07-31T07:27:00;8.93;;;8.32;;
739;SDS011;354;42.694;23.336;2023-07-31T07:29:25;8.20;;;7.70;;
739;SDS011;354;42.694;23.336;2023-07-31T07:31:51;8.30;;;7.70;;
739;SDS011;354;42.694;23.336;2023-07-31T07:34:16;8.50;;;7.70;;
739;SDS011;354;42.694;23.336;2023-07-31T07:36:41;8.90;;;8.30;;
739;SDS011;354;42.694;23.336;2023-07-31T07:39:06;9.02;;;8.18;;
739;SDS011;354;42.694;23.336;2023-07-31T07:41:31;8.93;;;8.32;;
739;SDS011;354;42.694;23.336;2023-07-31T07:43:57;14.55;;;13.30;;
739;SDS011;354;42.694;23.336;2023-07-31T07:46:22;8.80;;;8.10;;
739;SDS011;354;42.694;23.336;2023-07-31T07:48:48;8.90;;;8.20;;
739;SDS011;354;42.694;23.336;2023-07-31T07:51:13;8.13;;;7.63;;
739;SDS011;354;42.694;23.336;2023-07-31T07:53:38;8.63;;;7.93;;
739;SDS011;354;42.694;23.336;2023-07-31T07:56:03;8.20;;;7.55;;
739;SDS011;354;42.694;23.336;2023-07-31T07:58:29;8.32;;;7.82;;
739;SDS011;354;42.694;23.336;2023-07-31T08:00:54;7.70;;;7.07;;
739;SDS011;354;42.694;23.336;2023-07-31T08:03:19;8.73;;;7.93;;
739;SDS011;354;42.694;23.336;2023-07-31T08:05:44;11.10;;;8.43;;
739;SDS011;354;42.694;23.336;2023-07-31T08:08:14;10.45;;;7.30;;
739;SDS011;354;42.694;23.336;2023-07-31T08:10:39;10.43;;;9.65;;
739;SDS011;354;42.694;23.336;2023-07-31T08:13:04;7.93;;;7.30;;
739;SDS011;354;42.694;23.336;2023-07-31T08:15:29;8.35;;;7.65;;
739;SDS011;354;42.694;23.336;2023-07-31T08:17:55;8.65;;;7.85;;
739;SDS011;354;42.694;23.336;2023-07-31T08:20:20;8.55;;;7.93;;
739;SDS011;354;42.694;23.336;2023-07-31T08:22:45;8.02;;;7.43;;
739;SDS011;354;42.694;23.336;2023-07-31T08:25:11;8.65;;;7.95;;
739;SDS011;354;42.694;23.336;2023-07-31T08:27:36;7.47;;;6.85;;
739;SDS011;354;42.694;23.336;2023-07-31T08:30:01;7.93;;;7.43;;
739;SDS011;354;42.694;23.336;2023-07-31T08:32:27;7.78;;;7.20;;
739;SDS011;354;42.694;23.336;2023-07-31T08:34:52;7.55;;;7.05;;
739;SDS011;354;42.694;23.336;2023-07-31T08:37:17;9.45;;;8.70;;
739;SDS011;354;42.694;23.336;2023-07-31T08:39:42;7.95;;;7.38;;
739;SDS011;354;42.694;23.336;2023-07-31T08:42:08;7.85;;;7.32;;
739;SDS011;354;42.694;23.336;2023-07-31T08:44:34;8.27;;;7.57;;
739;SDS011;354;42.694;23.336;2023-07-31T08:46:59;8.45;;;7.78;;
739;SDS011;354;42.694;23.336;2023-07-31T08:49:25;7.75;;;7.25;;
739;SDS011;354;42.694;23.336;2023-07-31T08:51:50;8.30;;;7.70;;
739;SDS011;354;42.694;23.336;2023-07-31T08:54:17;7.88;;;7.18;;
739;SDS011;354;42.694;23.336;2023-07-31T08:56:42;7.47;;;6.88;;
739;SDS011;354;42.694;23.336;2023-07-31T08:59:07;8.05;;;7.43;;
739;SDS011;354;42.694;23.336;2023-07-31T09:01:35;7.90;;;7.40;;
739;SDS011;354;42.694;23.336;2023-07-31T09:04:03;8.57;;;7.97;;
739;SDS011;354;42.694;23.336;2023-07-31T09:06:29;7.32;;;6.60;;
739;SDS011;354;42.694;23.336;2023-07-31T09:08:55;7.20;;;6.70;;
739;SDS011;354;42.694;23.336;2023-07-31T09:11:21;7.40;;;6.97;;
739;SDS011;354;42.694;23.336;2023-07-31T09:13:46;7.22;;;6.65;;
739;SDS011;354;42.694;23.336;2023-07-31T09:16:11;7.10;;;6.60;;
739;SDS011;354;42.694;23.336;2023-07-31T09:18:52;6.95;;;6.50;;
739;SDS011;354;42.694;23.336;2023-07-31T09:21:17;7.88;;;7.32;;
739;SDS011;354;42.694;23.336;2023-07-31T09:23:43;7.40;;;7.00;;
739;SDS011;354;42.694;23.336;2023-07-31T09:26:09;7.68;;;7.22;;
739;SDS011;354;42.694;23.336;2023-07-31T09:28:34;7.75;;;7.15;;
739;SDS011;354;42.694;23.336;2023-07-31T09:30:59;7.93;;;7.28;;
739;SDS011;354;42.694;23.336;2023-07-31T09:33:25;8.20;;;7.70;;
739;SDS011;354;42.694;23.336;2023-07-31T09:35:50;7.43;;;7.03;;
739;SDS011;354;42.694;23.336;2023-07-31T09:38:15;7.75;;;7.13;;
739;SDS011;354;42.694;23.336;2023-07-31T09:40:42;7.88;;;7.22;;
739;SDS011;354;42.694;23.336;2023-07-31T09:43:08;8.35;;;7.75;;
739;SDS011;354;42.694;23.336;2023-07-31T09:45:35;8.73;;;8.02;;
739;SDS011;354;42.694;23.336;2023-07-31T09:48:01;8.73;;;7.95;;
739;SDS011;354;42.694;23.336;2023-07-31T09:50:27;7.80;;;7.10;;
739;SDS011;354;42.694;23.336;2023-07-31T09:52:53;7.05;;;6.65;;
739;SDS011;354;42.694;23.336;2023-07-31T09:55:18;8.25;;;7.75;;
739;SDS011;354;42.694;23.336;2023-07-31T09:57:45;7.00;;;6.60;;
739;SDS011;354;42.694;23.336;2023-07-31T10:00:10;6.97;;;6.38;;
739;SDS011;354;42.694;23.336;2023-07-31T10:02:36;7.65;;;6.65;;
739;SDS011;354;42.694;23.336;2023-07-31T10:05:02;6.78;;;6.28;;
739;SDS011;354;42.694;23.336;2023-07-31T10:07:28;6.63;;;6.13;;
739;SDS011;354;42.694;23.336;2023-07-31T10:09:55;6.70;;;6.30;;
739;SDS011;354;42.694;23.336;2023-07-31T10:12:22;5.72;;;5.43;;
739;SDS011;354;42.694;23.336;2023-07-31T10:14:50;5.72;;;5.35;;
739;SDS011;354;42.694;23.336;2023-07-31T10:17:16;6.80;;;6.40;;
739;SDS011;354;42.694;23.336;2023-07-31T10:19:43;6.63;;;6.22;;
739;SDS011;354;42.694;23.336;2023-07-31T10:22:08;6.07;;;5.78;;
739;SDS011;354;42.694;23.336;2023-07-31T10:24:34;7.75;;;7.18;;
739;SDS011;354;42.694;23.336;2023-07-31T10:27:00;6.60;;;6.00;;
739;SDS011;354;42.694;23.336;2023-07-31T10:29:26;6.53;;;6.07;;
739;SDS011;354;42.694;23.336;2023-07-31T10:31:52;6.38;;;6.05;;
739;SDS011;354;42.694;23.336;2023-07-31T10:34:17;6.32;;;5.93;;
739;SDS011;354;42.694;23.336;2023-07-31T10:36:42;6.22;;;5.82;;
739;SDS011;354;42.694;23.336;2023-07-31T10:39:53;6.43;;;5.85;;
739;SDS011;354;42.694;23.336;2023-07-31T10:41:53;6.30;;;5.85;;
739;SDS011;354;42.694;23.336;2023-07-31T10:44:18;6.10;;;5.63;;
739;SDS011;354;42.694;23.336;2023-07-31T10:46:45;6.75;;;6.18;;
739;SDS011;354;42.694;23.336;2023-07-31T10:49:10;6.40;;;6.10;;
739;SDS011;354;42.694;23.336;2023-07-31T10:51:46;5.82;;;5.53;;
739;SDS011;354;42.694;23.336;2023-07-31T11:43:59;6.20;;;5.70;;
739;SDS011;354;42.694;23.336;2023-07-31T11:46:24;7.20;;;6.68;;
739;SDS011;354;42.694;23.336;2023-07-31T11:48:49;8.02;;;7.28;;
739;SDS011;354;42.694;23.336;2023-07-31T11:51:15;7.95;;;7.45;;
739;SDS011;354;42.694;23.336;2023-07-31T11:56:36;7.15;;;6.60;;
739;SDS011;354;42.694;23.336;2023-07-31T11:59:01;7.03;;;6.00;;
739;SDS011;354;42.694;23.336;2023-07-31T12:01:28;6.72;;;6.20;;
739;SDS011;354;42.694;23.336;2023-07-31T12:03:53;6.70;;;6.05;;
739;SDS011;354;42.694;23.336;2023-07-31T12:06:19;7.38;;;6.88;;
739;SDS011;354;42.694;23.336;2023-07-31T12:08:46;7.97;;;7.38;;
739;SDS011;354;42.694;23.336;2023-07-31T12:11:11;8.32;;;7.72;;
739;SDS011;354;42.694;23.336;2023-07-31T12:13:36;7.30;;;6.80;;
739;SDS011;354;42.694;23.336;2023-07-31T12:16:02;7.50;;;7.00;;
739;SDS011;354;42.694;23.336;2023-07-31T12:18:29;8.57;;;7.93;;
739;SDS011;354;42.694;23.336;2023-07-31T12:20:56;24.88;;;22.23;;
739;SDS011;354;42.694;23.336;2023-07-31T12:23:25;8.15;;;7.53;;
739;SDS011;354;42.694;23.336;2023-07-31T12:28:28;9.55;;;8.80;;
739;SDS011;354;42.694;23.336;2023-07-31T12:30:56;9.05;;;8.40;;
739;SDS011;354;42.694;23.336;2023-07-31T12:33:22;9.25;;;8.40;;
739;SDS011;354;42.694;23.336;2023-07-31T12:35:47;8.43;;;7.93;;
739;SDS011;354;42.694;23.336;2023-07-31T12:38:13;8.63;;;7.93;;
739;SDS011;354;42.694;23.336;2023-07-31T12:40:39;8.90;;;8.30;;
739;SDS011;354;42.694;23.336;2023-07-31T12:43:05;11.63;;;10.63;;
739;SDS011;354;42.694;23.336;2023-07-31T12:45:30;10.07;;;9.38;;
739;SDS011;354;42.694;23.336;2023-07-31T12:47:56;8.73;;;8.07;;
739;SDS011;354;42.694;23.336;2023-07-31T12:50:21;9.40;;;8.85;;
739;SDS011;354;42.694;23.336;2023-07-31T12:52:46;9.98;;;9.18;;
739;SDS011;354;42.694;23.336;2023-07-31T12:55:12;10.88;;;10.07;;
739;SDS011;354;42.694;23.336;2023-07-31T12:57:37;11.05;;;10.15;;
739;SDS011;354;42.694;23.336;2023-07-31T13:00:02;11.05;;;10.10;;
739;SDS011;354;42.694;23.336;2023-07-31T13:02:28;10.60;;;9.73;;
739;SDS011;354;42.694;23.336;2023-07-31T13:04:53;11.45;;;10.45;;
739;SDS011;354;42.694;23.336;2023-07-31T13:07:19;11.32;;;10.43;;
739;SDS011;354;42.694;23.336;2023-07-31T13:09:45;10.80;;;9.85;;
739;SDS011;354;42.694;23.336;2023-07-31T13:12:10;10.27;;;9.57;;
739;SDS011;354;42.694;23.336;2023-07-31T13:14:36;10.57;;;9.68;;
739;SDS011;354;42.694;23.336;2023-07-31T13:17:01;9.95;;;9.25;;
739;SDS011;354;42.694;23.336;2023-07-31T13:19:26;10.35;;;9.65;;
739;SDS011;354;42.694;23.336;2023-07-31T13:21:52;15.27;;;13.80;;
739;SDS011;354;42.694;23.336;2023-07-31T13:24:17;9.18;;;8.57;;
739;SDS011;354;42.694;23.336;2023-07-31T13:26:42;10.25;;;9.40;;
739;SDS011;354;42.694;23.336;2023-07-31T13:29:07;13.90;;;12.60;;
739;SDS011;354;42.694;23.336;2023-07-31T13:31:33;9.65;;;8.85;;
739;SDS011;354;42.694;23.336;2023-07-31T13:33:58;9.88;;;9.05;;
739;SDS011;354;42.694;23.336;2023-07-31T13:36:23;8.95;;;8.35;;
739;SDS011;354;42.694;23.336;2023-07-31T13:38:48;9.00;;;8.40;;
739;SDS011;354;42.694;23.336;2023-07-31T13:41:14;11.20;;;10.07;;
739;SDS011;354;42.694;23.336;2023-07-31T13:43:39;9.63;;;8.93;;
739;SDS011;354;42.694;23.336;2023-07-31T13:46:04;9.75;;;9.07;;
739;SDS011;354;42.694;23.336;2023-07-31T13:48:31;9.00;;;8.48;;
739;SDS011;354;42.694;23.336;2023-07-31T13:50:56;9.00;;;8.00;;
739;SDS011;354;42.694;23.336;2023-07-31T13:53:22;9.80;;;9.10;;
739;SDS011;354;42.694;23.336;2023-07-31T13:55:47;8.38;;;7.88;;
739;SDS011;354;42.694;23.336;2023-07-31T13:58:14;8.40;;;7.90;;
739;SDS011;354;42.694;23.336;2023-07-31T14:00:39;8.95;;;8.45;;
739;SDS011;354;42.694;23.336;2023-07-31T14:03:04;8.38;;;7.65;;
739;SDS011;354;42.694;23.336;2023-07-31T14:05:29;8.48;;;7.82;;
739;SDS011;354;42.694;23.336;2023-07-31T14:07:55;8.55;;;7.72;;
739;SDS011;354;42.694;23.336;2023-07-31T14:10:20;9.02;;;8.43;;
739;SDS011;354;42.694;23.336;2023-07-31T14:12:45;9.45;;;8.82;;
739;SDS011;354;42.694;23.336;2023-07-31T14:15:10;8.65;;;8.05;;
739;SDS011;354;42.694;23.336;2023-07-31T14:17:36;9.48;;;8.57;;
739;SDS011;354;42.694;23.336;2023-07-31T14:20:01;9.88;;;9.20;;
739;SDS011;354;42.694;23.336;2023-07-31T14:22:28;9.30;;;8.70;;
739;SDS011;354;42.694;23.336;2023-07-31T14:24:54;9.50;;;8.52;;
739;SDS011;354;42.694;23.336;2023-07-31T14:27:19;8.32;;;7.53;;
739;SDS011;354;42.694;23.336;2023-07-31T14:29:45;8.05;;;7.55;;
739;SDS011;354;42.694;23.336;2023-07-31T14:32:10;8.40;;;7.90;;
739;SDS011;354;42.694;23.336;2023-07-31T14:34:35;7.47;;;7.07;;
739;SDS011;354;42.694;23.336;2023-07-31T14:37:00;8.38;;;7.78;;
739;SDS011;354;42.694;23.336;2023-07-31T14:39:26;8.23;;;7.55;;
739;SDS011;354;42.694;23.336;2023-07-31T14:41:51;13.63;;;12.00;;
739;SDS011;354;42.694;23.336;2023-07-31T14:44:16;7.95;;;7.45;;
739;SDS011;354;42.694;23.336;2023-07-31T14:46:42;9.75;;;8.98;;
739;SDS011;354;42.694;23.336;2023-07-31T14:49:07;8.80;;;8.20;;
739;SDS011;354;42.694;23.336;2023-07-31T14:51:32;8.10;;;7.60;;
739;SDS011;354;42.694;23.336;2023-07-31T14:53:57;8.07;;;7.57;;
739;SDS011;354;42.694;23.336;2023-07-31T14:56:22;8.20;;;7.70;;
739;SDS011;354;42.694;23.336;2023-07-31T14:58:48;8.38;;;7.78;;
739;SDS011;354;42.694;23.336;2023-07-31T15:01:13;8.15;;;7.38;;
739;SDS011;354;42.694;23.336;2023-07-31T15:03:38;7.95;;;7.13;;
739;SDS011;354;42.694;23.336;2023-07-31T15:06:03;7.82;;;7.32;;
739;SDS011;354;42.694;23.336;2023-07-31T15:08:30;8.98;;;7.55;;
739;SDS011;354;42.694;23.336;2023-07-31T15:10:55;7.28;;;6.82;;
739;SDS011;354;42.694;23.336;2023-07-31T15:13:22;8.10;;;7.38;;
739;SDS011;354;42.694;23.336;2023-07-31T15:15:47;8.23;;;7.50;;
739;SDS011;354;42.694;23.336;2023-07-31T15:18:13;8.18;;;7.47;;
739;SDS011;354;42.694;23.336;2023-07-31T15:20:38;6.97;;;6.47;;
739;SDS011;354;42.694;23.336;2023-07-31T15:23:03;7.03;;;6.55;;
739;SDS011;354;42.694;23.336;2023-07-31T15:25:28;6.82;;;6.53;;
739;SDS011;354;42.694;23.336;2023-07-31T15:27:53;6.22;;;5.88;;
739;SDS011;354;42.694;23.336;2023-07-31T15:30:19;7.40;;;6.90;;
739;SDS011;354;42.694;23.336;2023-07-31T15:32:44;6.72;;;6.00;;
739;SDS011;354;42.694;23.336;2023-07-31T15:35:13;6.70;;;6.20;;
739;SDS011;354;42.694;23.336;2023-07-31T15:37:38;7.18;;;6.68;;
739;SDS011;354;42.694;23.336;2023-07-31T15:40:03;6.85;;;6.45;;
739;SDS011;354;42.694;23.336;2023-07-31T15:42:29;6.47;;;6.07;;
739;SDS011;354;42.694;23.336;2023-07-31T15:44:55;6.35;;;5.95;;
739;SDS011;354;42.694;23.336;2023-07-31T15:47:20;6.45;;;6.05;;
739;SDS011;354;42.694;23.336;2023-07-31T15:49:45;6.40;;;5.90;;
739;SDS011;354;42.694;23.336;2023-07-31T15:52:10;7.28;;;6.57;;
739;SDS011;354;42.694;23.336;2023-07-31T15:54:35;6.10;;;5.68;;
739;SDS011;354;42.694;23.336;2023-07-31T15:57:01;6.30;;;5.90;;
739;SDS011;354;42.694;23.336;2023-07-31T15:59:26;6.32;;;5.93;;
739;SDS011;354;42.694;23.336;2023-07-31T16:01:51;6.63;;;5.97;;
739;SDS011;354;42.694;23.336;2023-07-31T16:04:16;6.32;;;6.00;;
739;SDS011;354;42.694;23.336;2023-07-31T16:06:42;6.20;;;5.80;;
739;SDS011;354;42.694;23.336;2023-07-31T16:09:07;5.70;;;5.30;;
739;SDS011;354;42.694;23.336;2023-07-31T16:11:32;5.70;;;5.30;;